KBTM/BTM METAR and TAF weather

Enter ICAO airport designator
Station Type Date Time Source
KBTM METAR 2024/02/26 16:05 UTC NOAA

KBTM 261605Z AUTO 28010KT 1 3/4SM -SN FEW018 OVC025 01/M02 A2941 RMK AO2 P0000 T00061022


Station Type Date Time Source
KBTM Decoded METAR 2024/02/26 16:05 UTC NOAA

BERT MOONEY AIRPORT, MT, United States (KBTM) 45-58N 112-30W 1688M
Feb 26, 2024 - 11:05 AM EST / 2024.02.26 1605 UTC
Wind: from the W (280 degrees) at 12 MPH (10 KT):0
Visibility: 1 3/4 mile(s):0
Sky conditions: overcast
Weather: light snow
Precipitation last hour: A trace
Temperature: 33.1 F (0.6 C)
Windchill: 24 F (-4 C):1
Dew Point: 28.0 F (-2.2 C)
Relative Humidity: 81%
Pressure (altimeter): 29.41 in. Hg (995 hPa)
ob: KBTM 261605Z AUTO 28010KT 1 3/4SM -SN FEW018 OVC025 01/M02 A2941 RMK AO2 P0000 T00061022
cycle: 16

Station Type Date Time Source
KBTM TAF 2024/02/26 15:06 UTC NOAA